createdAt,value
2018-10-03T00:01:01.909Z,38.60
2018-10-03T00:02:33.494Z,38.10
2018-10-03T00:04:05.158Z,36.00
2018-10-03T00:05:36.634Z,42.60
2018-10-03T00:07:08.209Z,39.60
2018-10-03T00:08:39.783Z,42.30
2018-10-03T00:10:11.459Z,42.20
2018-10-03T00:11:42.934Z,47.20
2018-10-03T00:13:14.510Z,42.00
2018-10-03T00:14:46.085Z,48.10
2018-10-03T00:16:17.660Z,42.70
2018-10-03T00:17:49.234Z,48.20
2018-10-03T00:19:20.814Z,46.50
2018-10-03T00:20:52.390Z,46.80
2018-10-03T00:22:24.061Z,47.20
2018-10-03T00:23:55.535Z,44.50
2018-10-03T00:25:27.112Z,45.00
2018-10-03T00:26:58.684Z,46.30
2018-10-03T00:28:30.363Z,44.30
2018-10-03T00:30:01.835Z,42.00
2018-10-03T00:31:33.411Z,43.20
2018-10-03T00:33:04.986Z,48.70
2018-10-03T00:34:36.561Z,53.40
2018-10-03T00:36:08.137Z,50.50
2018-10-03T00:37:39.715Z,51.10
2018-10-03T00:39:11.284Z,54.10
2018-10-03T00:40:42.860Z,53.90
2018-10-03T00:42:14.441Z,57.00
2018-10-03T00:43:46.010Z,60.60
2018-10-03T00:45:17.583Z,54.00
2018-10-03T00:46:49.258Z,55.00
2018-10-03T00:48:20.735Z,55.60
2018-10-03T00:49:52.310Z,54.20
2018-10-03T00:51:23.885Z,52.30
2018-10-03T00:52:55.459Z,50.40
2018-10-03T00:54:27.033Z,61.70
2018-10-03T00:55:58.609Z,52.20
2018-10-03T00:57:30.185Z,51.30
2018-10-03T00:59:01.760Z,55.20
2018-10-03T01:00:33.335Z,56.50
2018-10-03T01:02:05.214Z,57.70
2018-10-03T01:03:36.487Z,55.60
2018-10-03T01:05:08.268Z,52.80
2018-10-03T01:06:39.641Z,61.70
2018-10-03T01:08:11.212Z,65.50
2018-10-03T01:09:42.787Z,62.80
2018-10-03T01:11:14.544Z,69.40
2018-10-03T01:12:45.940Z,62.20
2018-10-03T01:14:17.523Z,56.80
2018-10-03T01:15:49.169Z,62.80
2018-10-03T01:17:20.662Z,69.30
2018-10-03T01:18:52.247Z,67.10
2018-10-03T01:20:23.815Z,65.30
2018-10-03T01:21:55.392Z,55.60
2018-10-03T01:23:27.713Z,58.40
2018-10-03T01:24:58.538Z,67.10
2018-10-03T01:26:30.116Z,57.80
2018-10-03T01:28:01.689Z,69.20
2018-10-03T01:29:33.314Z,75.10
2018-10-03T01:31:04.904Z,72.10
2018-10-03T01:32:36.414Z,69.10
2018-10-03T01:34:07.992Z,67.30
2018-10-03T01:35:39.569Z,65.40
2018-10-03T01:37:11.144Z,61.10
2018-10-03T01:38:45.665Z,64.30
2018-10-03T01:40:14.293Z,69.50
2018-10-03T01:41:45.994Z,66.50
2018-10-03T01:43:17.464Z,69.70
2018-10-03T01:44:49.066Z,67.50
2018-10-03T01:46:20.598Z,80.20
2018-10-03T01:47:52.168Z,65.50
2018-10-03T01:49:23.742Z,69.80
2018-10-03T01:50:55.318Z,65.40
2018-10-03T01:52:26.912Z,65.40
2018-10-03T01:53:58.513Z,65.90
2018-10-03T01:55:30.043Z,70.70
2018-10-03T01:57:01.618Z,73.30
2018-10-03T01:58:34.440Z,68.20
2018-10-03T02:00:04.889Z,71.70
2018-10-03T02:01:36.343Z,72.10
2018-10-03T02:03:07.919Z,64.30
2018-10-03T02:04:39.498Z,60.60
2018-10-03T02:06:11.168Z,69.50
2018-10-03T02:07:42.702Z,74.10
2018-10-03T02:09:14.221Z,67.20
2018-10-03T02:10:45.794Z,66.60
2018-10-03T02:12:17.389Z,74.30
2018-10-03T02:13:48.963Z,77.30
2018-10-03T02:15:20.542Z,75.90
2018-10-03T02:16:52.092Z,83.20
2018-10-03T02:18:23.767Z,83.70
2018-10-03T02:19:55.242Z,84.50
2018-10-03T02:21:26.817Z,76.90
2018-10-03T02:22:58.394Z,71.90
2018-10-03T02:24:29.969Z,66.90
2018-10-03T02:26:01.542Z,73.40
2018-10-03T02:27:33.117Z,65.50
2018-10-03T02:29:04.694Z,75.10
2018-10-03T02:30:36.268Z,67.40
2018-10-03T02:32:07.843Z,61.70
2018-10-03T02:33:39.417Z,69.30
2018-10-03T02:35:10.992Z,63.40
2018-10-03T02:36:42.768Z,70.50
2018-10-03T02:38:14.144Z,66.80
2018-10-03T02:39:45.717Z,65.00
2018-10-03T02:41:17.293Z,69.40
2018-10-03T02:42:48.868Z,72.80
2018-10-03T02:44:20.444Z,81.20
2018-10-03T02:45:52.018Z,74.60
2018-10-03T02:47:23.604Z,75.50
2018-10-03T02:48:55.168Z,60.40
2018-10-03T02:50:26.745Z,61.50
2018-10-03T02:51:58.327Z,63.40
2018-10-03T02:53:29.892Z,61.50
2018-10-03T02:55:01.569Z,57.50
2018-10-03T02:56:33.043Z,61.20
2018-10-03T02:58:04.654Z,55.20
2018-10-03T02:59:36.192Z,53.70
2018-10-03T03:01:07.769Z,55.30
2018-10-03T03:02:39.343Z,54.00
2018-10-03T03:04:10.915Z,50.20
2018-10-03T03:05:42.552Z,56.90
2018-10-03T03:07:14.166Z,56.80
2018-10-03T03:08:45.676Z,54.10
2018-10-03T03:10:17.231Z,55.50
2018-10-03T03:11:48.815Z,57.60
2018-10-03T03:13:20.468Z,59.10
2018-10-03T03:14:51.940Z,58.70
2018-10-03T03:16:23.516Z,63.50
2018-10-03T03:17:55.095Z,65.60
2018-10-03T03:19:26.672Z,61.00
2018-10-03T03:20:58.241Z,60.30
2018-10-03T03:22:29.815Z,52.00
2018-10-03T03:24:01.390Z,60.00
2018-10-03T03:25:32.965Z,54.10
2018-10-03T03:27:04.542Z,67.00
2018-10-03T03:28:36.117Z,72.90
2018-10-03T03:30:07.695Z,70.60
2018-10-03T03:31:39.367Z,74.80
2018-10-03T03:33:10.839Z,65.80
2018-10-03T03:34:42.416Z,77.20
2018-10-03T03:36:13.990Z,90.90
2018-10-03T03:37:45.664Z,85.00
2018-10-03T03:39:17.139Z,66.00
2018-10-03T03:40:48.713Z,76.10
2018-10-03T03:42:20.289Z,66.40
2018-10-03T03:43:51.863Z,65.80
2018-10-03T03:45:23.438Z,64.90
2018-10-03T03:46:55.013Z,69.60
2018-10-03T03:48:26.595Z,65.80
2018-10-03T03:49:58.262Z,68.00
2018-10-03T03:51:29.738Z,66.30
2018-10-03T03:53:01.312Z,66.90
2018-10-03T03:54:32.886Z,86.90
2018-10-03T03:56:04.460Z,81.00
2018-10-03T03:57:36.035Z,87.00
2018-10-03T03:59:07.610Z,82.30
2018-10-03T04:00:39.184Z,78.00
2018-10-03T04:02:10.759Z,83.50
2018-10-03T04:03:42.333Z,74.90
2018-10-03T04:05:13.909Z,77.90
2018-10-03T04:06:45.483Z,65.30
2018-10-03T04:08:17.156Z,72.40
2018-10-03T04:09:48.630Z,75.70
2018-10-03T04:11:20.206Z,72.40
2018-10-03T04:12:51.779Z,58.40
2018-10-03T04:14:23.353Z,60.60
2018-10-03T04:15:54.929Z,71.90
2018-10-03T04:17:26.502Z,74.80
2018-10-03T04:18:58.076Z,63.10
2018-10-03T04:20:29.952Z,67.50
2018-10-03T04:22:01.224Z,66.50
2018-10-03T04:23:32.798Z,70.50
2018-10-03T04:25:04.373Z,71.80
2018-10-03T04:26:36.149Z,70.30
2018-10-03T04:28:07.523Z,69.30
2018-10-03T04:29:39.094Z,82.00
2018-10-03T04:31:10.668Z,75.50
2018-10-03T04:32:42.257Z,82.80
2018-10-03T04:34:13.816Z,83.60
2018-10-03T04:35:45.487Z,84.40
2018-10-03T04:37:16.963Z,85.20
2018-10-03T04:38:48.638Z,91.50
2018-10-03T04:40:20.111Z,87.40
2018-10-03T04:41:51.685Z,85.60
2018-10-03T04:43:23.258Z,99.30
2018-10-03T04:44:54.935Z,103.60
2018-10-03T04:46:26.405Z,95.40
2018-10-03T04:47:57.981Z,90.90
2018-10-03T04:49:29.554Z,96.50
2018-10-03T04:51:01.128Z,100.90
2018-10-03T04:52:32.701Z,99.40
2018-10-03T04:54:04.273Z,88.10
2018-10-03T04:55:35.847Z,89.30
2018-10-03T04:57:07.422Z,94.50
2018-10-03T04:58:38.995Z,108.10
2018-10-03T05:00:10.568Z,92.60
2018-10-03T05:03:13.826Z,80.90
2018-10-03T05:04:45.289Z,93.20
2018-10-03T05:06:16.870Z,66.10
2018-10-03T05:07:48.437Z,75.10
2018-10-03T05:09:20.112Z,81.90
2018-10-03T05:10:51.585Z,71.60
2018-10-03T05:12:23.159Z,78.90
2018-10-03T05:13:54.732Z,76.50
2018-10-03T05:15:26.308Z,77.50
2018-10-03T05:16:57.881Z,68.20
2018-10-03T05:18:29.455Z,66.10
2018-10-03T05:20:01.028Z,66.80
2018-10-03T05:21:33.001Z,65.80
2018-10-03T05:23:04.175Z,54.00
2018-10-03T05:24:35.750Z,60.90
2018-10-03T05:26:07.348Z,59.00
2018-10-03T05:27:38.903Z,63.50
2018-10-03T05:29:10.473Z,54.30
2018-10-03T05:30:42.044Z,58.80
2018-10-03T05:32:13.618Z,57.70
2018-10-03T05:33:45.192Z,56.10
2018-10-03T05:35:16.766Z,56.20
2018-10-03T05:36:48.339Z,57.50
2018-10-03T05:38:19.919Z,56.50
2018-10-03T05:39:51.688Z,49.00
2018-10-03T05:41:23.062Z,49.20
2018-10-03T05:42:54.636Z,51.90
2018-10-03T05:44:26.209Z,50.70
2018-10-03T05:45:57.787Z,45.30
2018-10-03T05:47:29.359Z,50.40
2018-10-03T05:49:00.931Z,54.50
2018-10-03T05:50:32.506Z,46.00
2018-10-03T05:52:04.380Z,52.00
2018-10-03T05:53:35.656Z,51.80
2018-10-03T05:55:07.229Z,50.00
2018-10-03T05:56:38.803Z,47.40
2018-10-03T05:58:10.477Z,50.50
2018-10-03T05:59:41.952Z,49.20
2018-10-03T06:01:13.527Z,55.70
2018-10-03T06:02:45.146Z,54.10
2018-10-03T06:04:16.675Z,55.60
2018-10-03T06:05:48.248Z,60.80
2018-10-03T06:07:19.822Z,62.00
2018-10-03T06:08:51.396Z,60.60
2018-10-03T06:10:22.972Z,51.30
2018-10-03T06:11:54.545Z,50.90
2018-10-03T06:13:26.119Z,46.40
2018-10-03T06:14:57.692Z,45.30
2018-10-03T06:16:29.367Z,44.40
2018-10-03T06:18:00.846Z,50.30
2018-10-03T06:19:32.415Z,50.10
2018-10-03T06:21:03.990Z,48.00
2018-10-03T06:22:35.862Z,47.10
2018-10-03T06:24:07.137Z,50.20
2018-10-03T06:25:38.710Z,44.70
2018-10-03T06:27:10.287Z,51.90
2018-10-03T06:28:41.857Z,53.30
2018-10-03T06:30:32.797Z,54.90
2018-10-03T06:31:45.018Z,60.70
2018-10-03T06:33:16.597Z,60.30
2018-10-03T06:34:48.365Z,58.40
2018-10-03T06:36:19.738Z,65.90
2018-10-03T06:37:51.311Z,69.00
2018-10-03T06:39:22.950Z,65.40
2018-10-03T06:40:54.559Z,75.20
2018-10-03T06:42:26.034Z,77.80
2018-10-03T06:43:57.607Z,68.80
2018-10-03T06:45:29.185Z,69.50
2018-10-03T06:47:00.754Z,83.70
2018-10-03T06:48:32.327Z,75.30
2018-10-03T06:50:03.901Z,66.60
2018-10-03T06:51:35.475Z,72.80
2018-10-03T06:53:08.151Z,73.70
2018-10-03T06:54:38.624Z,67.20
2018-10-03T06:56:10.197Z,70.10
2018-10-03T06:57:41.774Z,63.60
2018-10-03T06:59:13.347Z,79.00
2018-10-03T07:00:44.921Z,81.10
2018-10-03T07:02:16.492Z,74.70
2018-10-03T07:03:48.066Z,64.50
2018-10-03T07:05:19.640Z,65.20
2018-10-03T07:06:51.214Z,65.20
2018-10-03T07:08:22.788Z,49.70
2018-10-03T07:09:54.362Z,56.80
2018-10-03T07:11:26.136Z,56.10
2018-10-03T07:12:57.522Z,51.00
2018-10-03T07:14:29.084Z,58.40
2018-10-03T07:16:00.658Z,50.50
2018-10-03T07:17:32.232Z,50.40
2018-10-03T07:19:03.805Z,49.90
2018-10-03T07:20:35.371Z,49.00
2018-10-03T07:22:06.944Z,48.00
2018-10-03T07:23:38.818Z,48.50
2018-10-03T07:25:10.093Z,49.20
2018-10-03T07:26:41.668Z,50.30
2018-10-03T07:28:13.241Z,51.60
2018-10-03T07:29:44.917Z,42.40
2018-10-03T07:31:16.394Z,52.00
2018-10-03T07:32:47.967Z,49.60
2018-10-03T07:34:19.536Z,51.50
2018-10-03T07:35:51.110Z,55.30
2018-10-03T07:37:22.684Z,54.40
2018-10-03T07:38:54.258Z,55.80
2018-10-03T07:40:25.834Z,62.50
2018-10-03T07:41:57.506Z,64.60
2018-10-03T07:43:28.982Z,58.60
2018-10-03T07:45:00.553Z,60.70
2018-10-03T07:46:32.127Z,61.50
2018-10-03T07:48:03.853Z,64.90
2018-10-03T07:49:35.276Z,67.40
2018-10-03T07:51:06.848Z,65.80
2018-10-03T07:52:38.423Z,68.00
2018-10-03T07:54:09.997Z,67.70
2018-10-03T07:55:41.570Z,68.00
2018-10-03T07:57:13.145Z,70.00
2018-10-03T07:58:44.717Z,60.90
2018-10-03T08:00:16.391Z,64.90
2018-10-03T08:01:47.866Z,68.70
2018-10-03T08:03:19.440Z,66.50
2018-10-03T08:04:51.013Z,76.70
2018-10-03T08:06:23.137Z,66.40
2018-10-03T08:07:54.164Z,65.30
2018-10-03T08:09:25.733Z,73.40
2018-10-03T08:10:57.308Z,74.00
2018-10-03T08:12:28.881Z,68.80
2018-10-03T08:14:00.454Z,77.80
2018-10-03T08:15:32.030Z,78.80
2018-10-03T08:17:03.603Z,72.60
2018-10-03T08:18:35.175Z,75.80
2018-10-03T08:20:06.749Z,75.30
2018-10-03T08:21:38.327Z,79.60
2018-10-03T08:23:09.896Z,76.40
2018-10-03T08:24:41.890Z,76.00
2018-10-03T08:26:13.044Z,79.50
2018-10-03T08:27:44.618Z,77.80
2018-10-03T08:29:16.192Z,70.00
2018-10-03T08:30:47.767Z,87.20
2018-10-03T08:32:19.362Z,71.30
2018-10-03T08:33:50.916Z,79.10
2018-10-03T08:35:22.487Z,72.80
2018-10-03T08:36:54.162Z,82.90
2018-10-03T08:38:25.639Z,78.40
2018-10-03T08:41:28.783Z,79.10
2018-10-03T08:43:00.559Z,77.10
2018-10-03T08:44:31.930Z,86.20
2018-10-03T08:46:03.626Z,78.00
2018-10-03T08:49:06.655Z,73.60
2018-10-03T08:50:38.271Z,88.60
2018-10-03T08:52:09.881Z,87.50
2018-10-03T08:53:41.410Z,105.60
2018-10-03T08:55:12.969Z,101.30
2018-10-03T08:56:44.541Z,93.70
2018-10-03T08:58:16.621Z,89.00
2018-10-03T08:59:47.748Z,81.80
2018-10-03T09:01:19.445Z,89.30
2018-10-03T09:02:50.920Z,77.70
2018-10-03T09:04:22.471Z,75.10
2018-10-03T09:05:53.975Z,72.10
2018-10-03T09:07:25.645Z,70.00
2018-10-03T09:08:57.154Z,68.10
2018-10-03T09:10:28.706Z,60.50
2018-10-03T09:12:00.291Z,62.80
2018-10-03T09:13:32.148Z,57.30
2018-10-03T09:15:03.454Z,52.30
2018-10-03T09:16:35.509Z,54.10
2018-10-03T09:18:06.620Z,49.70
2018-10-03T09:19:38.266Z,46.10
2018-10-03T09:21:09.760Z,45.40
2018-10-03T09:22:41.385Z,46.10
2018-10-03T09:24:13.303Z,43.90
2018-10-03T09:25:44.541Z,41.40
2018-10-03T09:27:16.064Z,38.70
2018-10-03T09:28:47.741Z,37.30
2018-10-03T09:33:22.330Z,36.90
2018-10-03T09:34:53.909Z,37.70
2018-10-03T09:36:25.484Z,37.10
2018-10-03T09:41:00.320Z,34.50
2018-10-03T09:42:32.006Z,38.50
2018-10-03T09:44:03.386Z,35.70
2018-10-03T09:45:34.966Z,34.90
2018-10-03T09:47:06.741Z,36.20
2018-10-03T09:48:38.116Z,38.80
2018-10-03T09:50:09.695Z,40.20
2018-10-03T09:51:41.574Z,40.30
2018-10-03T09:53:13.276Z,41.10
2018-10-03T09:54:44.836Z,58.90
2018-10-03T09:56:16.004Z,57.00
2018-10-03T09:57:47.570Z,64.50
2018-10-03T09:59:19.297Z,61.90
2018-10-03T10:00:50.941Z,69.50
2018-10-03T10:02:22.302Z,71.20
2018-10-03T10:03:54.136Z,84.30
2018-10-03T10:06:57.063Z,80.70
2018-10-03T10:10:00.914Z,82.70
2018-10-03T10:13:03.343Z,89.40
2018-10-03T10:14:34.920Z,81.70
2018-10-03T10:16:06.913Z,82.70
2018-10-03T10:19:09.861Z,82.30
2018-10-03T10:20:41.254Z,79.90
2018-10-03T10:23:44.816Z,73.80
2018-10-03T10:25:15.973Z,70.20
2018-10-03T10:28:19.125Z,70.00
2018-10-03T10:29:50.710Z,68.30
2018-10-03T10:31:22.655Z,59.80
2018-10-03T10:34:25.428Z,63.10
2018-10-03T10:35:57.005Z,57.70
2018-10-03T10:37:28.987Z,68.30
2018-10-03T10:39:00.465Z,61.50
2018-10-03T10:40:33.172Z,52.10
2018-10-03T10:42:03.669Z,58.40
2018-10-03T10:43:35.286Z,53.90
2018-10-03T10:45:06.948Z,48.70
2018-10-03T10:48:09.728Z,42.30
2018-10-03T10:49:41.796Z,39.40
2018-10-03T10:51:12.836Z,38.90
2018-10-03T10:52:44.830Z,37.00
2018-10-03T10:54:16.143Z,31.70
2018-10-03T10:55:47.717Z,34.30
2018-10-03T10:57:19.628Z,29.80
2018-10-03T10:58:51.711Z,28.80
2018-10-03T11:00:22.794Z,27.70
2018-10-03T11:01:54.185Z,27.80
2018-10-03T11:03:26.355Z,25.20
2018-10-03T11:04:57.982Z,23.90
2018-10-03T11:06:29.313Z,25.30
2018-10-03T11:08:00.867Z,22.20
2018-10-03T11:09:32.539Z,22.20
2018-10-03T11:11:03.580Z,23.00
2018-10-03T11:12:35.588Z,22.90
2018-10-03T11:14:06.618Z,22.10
2018-10-03T11:15:38.704Z,18.30
2018-10-03T11:17:10.210Z,19.00
2018-10-03T11:18:41.618Z,22.00
2018-10-03T11:21:44.636Z,21.30
2018-10-03T11:23:16.030Z,22.20
2018-10-03T11:24:47.947Z,21.20
2018-10-03T11:26:19.377Z,24.30
2018-10-03T11:27:51.573Z,23.50
2018-10-03T11:29:22.346Z,21.70
2018-10-03T11:30:54.646Z,20.70
2018-10-03T11:32:25.710Z,21.40
2018-10-03T11:37:00.377Z,22.20
2018-10-03T11:41:35.201Z,19.10
2018-10-03T11:44:38.214Z,19.20
2018-10-03T11:46:10.699Z,21.70
2018-10-03T11:47:41.312Z,23.40
2018-10-03T11:49:13.024Z,18.80
2018-10-03T11:50:45.142Z,20.50
2018-10-03T11:52:16.558Z,19.90
2018-10-03T11:53:47.636Z,17.70
2018-10-03T11:55:19.252Z,20.70
2018-10-03T11:56:50.898Z,22.30
2018-10-03T11:58:22.374Z,20.30
2018-10-03T11:59:54.158Z,20.30
2018-10-03T12:01:25.754Z,20.40
2018-10-03T12:02:57.620Z,18.70
2018-10-03T12:04:28.702Z,17.10
2018-10-03T12:06:00.292Z,18.80
2018-10-03T12:07:32.793Z,18.70
2018-10-03T12:09:03.485Z,16.10
2018-10-03T12:10:35.033Z,16.30
2018-10-03T12:13:38.777Z,15.90
2018-10-03T12:15:09.895Z,15.00
2018-10-03T12:16:42.294Z,14.40
2018-10-03T12:21:16.423Z,13.80
2018-10-03T12:22:47.707Z,15.00
2018-10-03T12:24:19.291Z,15.50
2018-10-03T12:25:50.875Z,15.70
2018-10-03T12:30:26.658Z,13.80
2018-10-03T12:31:57.236Z,14.60
2018-10-03T12:33:29.443Z,13.60
2018-10-03T12:35:00.400Z,13.60
2018-10-03T12:36:32.494Z,15.20
2018-10-03T12:38:03.762Z,14.60
2018-10-03T12:41:06.929Z,14.70
2018-10-03T12:42:38.313Z,13.90
2018-10-03T12:44:09.900Z,16.70
2018-10-03T12:48:45.064Z,15.20
2018-10-03T12:51:47.829Z,11.40
2018-10-03T12:53:19.417Z,14.30
2018-10-03T12:54:51.092Z,13.40
2018-10-03T12:56:22.592Z,14.30
2018-10-03T12:57:54.790Z,13.50
2018-10-03T13:00:57.350Z,13.30
2018-10-03T13:02:29.146Z,13.30
2018-10-03T13:04:00.727Z,12.80
2018-10-03T13:05:32.420Z,11.70
2018-10-03T13:07:03.800Z,11.50
2018-10-03T13:08:35.288Z,11.10
2018-10-03T13:10:06.874Z,10.00
2018-10-03T13:13:10.050Z,10.00
2018-10-03T13:14:41.844Z,9.70
2018-10-03T13:16:13.275Z,10.20
2018-10-03T13:19:16.580Z,10.10
2018-10-03T13:22:19.639Z,9.70
2018-10-03T13:23:51.236Z,9.60
2018-10-03T13:25:22.885Z,9.80
2018-10-03T13:26:54.681Z,9.80
2018-10-03T13:28:26.058Z,10.60
2018-10-03T13:29:57.627Z,9.10
2018-10-03T13:31:29.126Z,8.90
2018-10-03T13:34:34.026Z,10.00
2018-10-03T13:36:04.123Z,9.80
2018-10-03T13:37:36.025Z,8.50
2018-10-03T13:39:07.048Z,8.60
2018-10-03T13:40:39.266Z,9.20
2018-10-03T13:43:42.100Z,7.70
2018-10-03T13:45:13.708Z,8.90
2018-10-03T13:46:45.563Z,6.70
2018-10-03T13:48:17.204Z,8.10
2018-10-03T13:49:48.725Z,7.70
2018-10-03T13:51:19.886Z,7.80
2018-10-03T13:52:51.865Z,7.40
2018-10-03T13:54:23.099Z,6.30
2018-10-03T13:55:54.951Z,6.80
2018-10-03T13:57:26.444Z,6.40
2018-10-03T13:58:57.725Z,6.60
2018-10-03T14:00:29.373Z,6.80
2018-10-03T14:02:01.348Z,7.10
2018-10-03T14:05:04.411Z,7.00
2018-10-03T14:06:36.080Z,6.70
2018-10-03T14:08:07.622Z,6.70
2018-10-03T14:09:39.182Z,8.80
2018-10-03T14:11:10.893Z,7.40
2018-10-03T14:14:13.811Z,7.30
2018-10-03T14:15:45.228Z,7.80
2018-10-03T14:17:17.799Z,7.10
2018-10-03T14:20:21.080Z,7.30
2018-10-03T14:21:52.017Z,7.70
2018-10-03T14:23:23.470Z,7.00
2018-10-03T14:24:55.032Z,6.50
2018-10-03T14:26:26.801Z,7.90
2018-10-03T14:27:58.497Z,7.10
2018-10-03T14:29:30.287Z,8.10
2018-10-03T14:31:01.135Z,8.50
2018-10-03T14:34:04.316Z,8.40
2018-10-03T14:35:35.991Z,7.90
2018-10-03T14:37:07.877Z,8.10
2018-10-03T14:38:39.062Z,8.50
2018-10-03T14:40:11.008Z,7.80
2018-10-03T14:41:42.220Z,8.20
2018-10-03T14:43:14.244Z,7.70
2018-10-03T14:44:45.482Z,8.10
2018-10-03T14:46:17.245Z,8.40
2018-10-03T14:47:48.888Z,7.40
2018-10-03T14:49:20.342Z,7.60
2018-10-03T14:50:51.934Z,7.30
2018-10-03T14:53:54.947Z,8.50
2018-10-03T14:56:58.432Z,8.30
2018-10-03T14:58:29.797Z,7.90
2018-10-03T15:00:01.627Z,7.30
2018-10-03T15:01:32.958Z,7.80
2018-10-03T15:03:05.019Z,6.70
2018-10-03T15:04:36.346Z,6.90
2018-10-03T15:07:39.623Z,7.50
2018-10-03T15:09:10.811Z,9.60
2018-10-03T15:10:43.195Z,7.40
2018-10-03T15:12:14.355Z,6.60
2018-10-03T15:15:17.355Z,7.40
2018-10-03T15:16:49.094Z,7.10
2018-10-03T15:18:20.825Z,7.50
2018-10-03T15:19:52.861Z,8.00
2018-10-03T15:21:24.795Z,6.60
2018-10-03T15:22:55.296Z,7.60
2018-10-03T15:24:26.774Z,7.60
2018-10-03T15:25:58.315Z,7.60
2018-10-03T15:27:30.512Z,7.80
2018-10-03T15:30:33.081Z,7.60
2018-10-03T15:32:04.670Z,7.30
2018-10-03T15:33:36.408Z,8.00
2018-10-03T15:36:39.633Z,8.10
2018-10-03T15:38:11.742Z,6.40
2018-10-03T15:39:42.606Z,7.70
2018-10-03T15:42:45.984Z,7.80
2018-10-03T15:44:17.371Z,8.00
2018-10-03T15:45:48.996Z,6.50
2018-10-03T15:47:20.540Z,6.90
2018-10-03T15:48:52.332Z,7.00
2018-10-03T15:50:23.920Z,7.30
2018-10-03T15:51:56.332Z,6.60
2018-10-03T15:53:26.904Z,7.20
2018-10-03T15:54:58.690Z,6.60
2018-10-03T15:56:30.074Z,7.20
2018-10-03T15:58:01.789Z,6.70
2018-10-03T15:59:33.250Z,6.90
2018-10-03T16:01:04.839Z,8.60
2018-10-03T16:02:38.511Z,7.80
2018-10-03T16:04:08.094Z,7.70
2018-10-03T16:05:39.819Z,7.50
2018-10-03T16:07:11.504Z,7.40
2018-10-03T16:08:42.793Z,7.80
2018-10-03T16:10:14.925Z,7.10
2018-10-03T16:11:45.977Z,7.90
2018-10-03T16:14:49.461Z,6.50
2018-10-03T16:16:21.256Z,6.50
2018-10-03T16:19:24.783Z,7.80
2018-10-03T16:20:55.636Z,7.30
2018-10-03T16:22:27.439Z,7.20
2018-10-03T16:23:58.902Z,7.70
2018-10-03T16:27:01.940Z,7.60
2018-10-03T16:28:34.023Z,6.90
2018-10-03T16:31:36.700Z,6.90
2018-10-03T16:33:08.912Z,6.70
2018-10-03T16:34:39.829Z,7.40
2018-10-03T16:36:11.768Z,8.00
2018-10-03T16:37:43.084Z,7.60
2018-10-03T16:39:14.826Z,7.30
2018-10-03T16:40:46.701Z,7.90
2018-10-03T16:43:49.651Z,8.30
2018-10-03T16:46:52.832Z,7.20
2018-10-03T16:48:24.711Z,7.20
2018-10-03T16:49:56.353Z,8.00
2018-10-03T16:51:27.734Z,8.50
2018-10-03T16:52:58.925Z,7.60
2018-10-03T16:54:31.689Z,8.30
2018-10-03T16:56:02.282Z,7.70
2018-10-03T16:57:33.841Z,7.90
2018-10-03T16:59:06.439Z,7.00
2018-10-03T17:00:37.346Z,7.00
2018-10-03T17:02:08.386Z,8.20
2018-10-03T17:03:40.329Z,7.00
2018-10-03T17:05:11.656Z,7.50
2018-10-03T17:06:43.141Z,7.50
2018-10-03T17:08:15.088Z,7.50
2018-10-03T17:09:46.326Z,6.80
2018-10-03T17:12:49.702Z,9.80
2018-10-03T17:14:21.064Z,8.00
2018-10-03T17:15:52.649Z,8.00
2018-10-03T17:17:24.242Z,8.60
2018-10-03T17:23:30.924Z,7.40
2018-10-03T17:26:34.275Z,7.90
2018-10-03T17:28:05.607Z,8.80
2018-10-03T17:29:36.908Z,8.30
2018-10-03T17:31:08.575Z,8.40
2018-10-03T17:32:40.280Z,9.10
2018-10-03T17:34:11.702Z,8.60
2018-10-03T17:35:43.821Z,8.30
2018-10-03T17:37:15.244Z,9.70
2018-10-03T17:38:46.814Z,9.20
2018-10-03T17:40:18.131Z,9.30
2018-10-03T17:41:50.052Z,9.00
2018-10-03T17:43:22.268Z,8.40
2018-10-03T17:44:53.762Z,8.20
2018-10-03T17:46:24.886Z,8.10
2018-10-03T17:47:57.010Z,9.50
2018-10-03T17:49:28.182Z,7.70
2018-10-03T17:52:30.849Z,8.00
2018-10-03T17:54:03.151Z,7.60
2018-10-03T17:55:34.029Z,8.20
2018-10-03T17:57:05.627Z,17.10
2018-10-03T17:58:37.017Z,18.80
2018-10-03T18:00:09.363Z,21.70
2018-10-03T18:01:41.103Z,22.30
2018-10-03T18:03:12.432Z,23.60
2018-10-03T18:04:43.464Z,22.80
2018-10-03T18:06:15.446Z,21.30
2018-10-03T18:07:46.605Z,19.20
2018-10-03T18:12:21.459Z,18.90
2018-10-03T18:13:53.419Z,20.60
2018-10-03T18:15:24.450Z,21.00
2018-10-03T18:16:56.227Z,20.00
2018-10-03T18:18:27.679Z,21.70
2018-10-03T18:19:59.407Z,21.80
2018-10-03T18:23:02.330Z,22.90
2018-10-03T18:24:34.521Z,21.80
2018-10-03T18:26:05.476Z,26.90
2018-10-03T18:27:37.295Z,23.40
2018-10-03T18:29:08.835Z,22.10
2018-10-03T18:30:40.245Z,23.10
2018-10-03T18:32:11.788Z,24.20
2018-10-03T18:33:43.367Z,23.60
2018-10-03T18:35:14.942Z,24.50
2018-10-03T18:36:46.823Z,22.60
2018-10-03T18:38:18.097Z,22.20
2018-10-03T18:39:49.674Z,22.00
2018-10-03T18:42:53.146Z,15.80
2018-10-03T18:44:24.406Z,17.20
2018-10-03T18:45:56.491Z,15.60
2018-10-03T18:47:27.862Z,17.00
2018-10-03T18:50:30.915Z,15.00
2018-10-03T18:52:02.647Z,14.90
2018-10-03T18:53:34.537Z,11.40
2018-10-03T18:55:05.462Z,12.70
2018-10-03T18:56:37.119Z,10.50
2018-10-03T18:58:08.594Z,9.90
2018-10-03T18:59:40.299Z,9.00
2018-10-03T19:01:11.747Z,8.50
2018-10-03T19:02:43.324Z,9.30
2018-10-03T19:04:14.902Z,6.80
2018-10-03T19:05:46.570Z,6.90
2018-10-03T19:07:18.054Z,6.80
2018-10-03T19:08:49.833Z,6.00
2018-10-03T19:10:21.508Z,6.10
2018-10-03T19:11:52.832Z,5.20
2018-10-03T19:13:24.928Z,4.40
2018-10-03T19:14:56.035Z,4.50
2018-10-03T19:16:27.514Z,4.10
2018-10-03T19:21:02.238Z,3.80
2018-10-03T19:22:33.833Z,3.20
2018-10-03T19:24:05.421Z,2.80
2018-10-03T19:25:37.269Z,3.00
2018-10-03T19:27:08.634Z,3.60
2018-10-03T19:28:40.117Z,3.60
2018-10-03T19:30:12.086Z,3.60
2018-10-03T19:31:43.795Z,3.70
2018-10-03T19:33:14.946Z,3.80
2018-10-03T19:36:18.333Z,4.00
2018-10-03T19:37:49.632Z,4.00
2018-10-03T19:39:21.348Z,4.20
2018-10-03T19:40:52.977Z,4.10
2018-10-03T19:42:24.298Z,3.40
2018-10-03T19:43:56.389Z,4.20
2018-10-03T19:45:27.546Z,4.90
2018-10-03T19:46:59.218Z,6.80
2018-10-03T19:48:30.983Z,5.50
2018-10-03T19:50:02.692Z,5.80
2018-10-03T19:51:33.965Z,4.90
2018-10-03T19:53:05.317Z,5.60
2018-10-03T19:56:08.567Z,5.40
2018-10-03T19:57:40.073Z,4.20
2018-10-03T19:59:11.686Z,4.80
2018-10-03T20:00:43.190Z,4.40
2018-10-03T20:02:14.763Z,3.70
2018-10-03T20:03:46.409Z,3.80
2018-10-03T20:05:17.957Z,2.50
2018-10-03T20:06:49.488Z,2.80
2018-10-03T20:09:52.743Z,2.70
2018-10-03T20:11:24.733Z,2.80
2018-10-03T20:12:55.787Z,2.40
2018-10-03T20:14:27.364Z,2.70
2018-10-03T20:15:58.937Z,2.90
2018-10-03T20:17:30.511Z,2.60
2018-10-03T20:22:05.438Z,2.20
2018-10-03T20:23:36.809Z,1.60
2018-10-03T20:25:08.385Z,1.50
2018-10-03T20:26:40.071Z,2.00
2018-10-03T20:28:11.669Z,2.50
2018-10-03T20:29:43.110Z,1.60
2018-10-03T20:31:15.204Z,1.90
2018-10-03T20:32:46.562Z,1.70
2018-10-03T20:34:17.906Z,1.70
2018-10-03T20:35:49.407Z,1.50
2018-10-03T20:37:20.982Z,1.70
2018-10-03T20:38:52.788Z,1.60
2018-10-03T20:40:24.138Z,1.60
2018-10-03T20:41:55.840Z,1.60
2018-10-03T20:43:27.281Z,1.90
2018-10-03T20:44:58.856Z,1.60
2018-10-03T20:46:30.529Z,1.70
2018-10-03T20:48:02.006Z,1.70
2018-10-03T20:49:33.882Z,2.40
2018-10-03T20:51:05.153Z,2.10
2018-10-03T20:54:08.337Z,2.00
2018-10-03T20:55:39.881Z,2.20
2018-10-03T20:57:13.477Z,1.80
2018-10-03T20:58:43.026Z,2.20
2018-10-03T21:00:14.625Z,1.70
2018-10-03T21:01:46.480Z,2.20
2018-10-03T21:03:17.749Z,2.30
2018-10-03T21:04:49.323Z,3.50
2018-10-03T21:06:20.999Z,2.30
2018-10-03T21:07:52.473Z,2.20
2018-10-03T21:10:55.623Z,3.20
2018-10-03T21:13:58.773Z,3.20
2018-10-03T21:15:30.343Z,3.10
2018-10-03T21:17:01.925Z,2.80
2018-10-03T21:18:33.491Z,2.30
2018-10-03T21:20:05.067Z,2.90
2018-10-03T21:21:36.639Z,2.90
2018-10-03T21:23:08.212Z,2.50
2018-10-03T21:24:39.788Z,2.70
2018-10-03T21:26:11.462Z,2.50
2018-10-03T21:27:42.934Z,2.90
2018-10-03T21:29:14.510Z,3.20
2018-10-03T21:30:46.113Z,3.80
2018-10-03T21:32:17.658Z,4.40
2018-10-03T21:33:49.231Z,3.40
2018-10-03T21:35:20.804Z,4.00
2018-10-03T21:36:52.377Z,3.60
2018-10-03T21:38:23.952Z,3.20
2018-10-03T21:39:55.525Z,2.80
2018-10-03T21:41:27.099Z,2.80
2018-10-03T21:42:58.674Z,3.20
2018-10-03T21:44:30.350Z,3.90